Time;durP1;ratioP1;P1;durP2;ratioP2;P2;SDS_P1;SDS_P2;PMS_P1;PMS_P2;Temp;Humidity;BMP_temperature;BMP_pressure;BME280_temperature;BME280_humidity;BME280_pressure;Samples;Min_cycle;Max_cycle;Signal;HPM_P1;HPM_P2
2023/06/13 05:00:51;;;;;;;;;17.67;16.33;;;;;21.68;79.86;-19785.59;5892710;22;45409;-83
2023/06/13 05:03:19;;;;;;;;;22.00;19.33;;;;;21.54;80.09;-19781.72;4998629;28;46231;-81
2023/06/13 05:05:44;;;;;;;;;25.67;19.67;;;;;21.47;80.43;-19780.13;5027416;28;46490;-85
2023/06/13 05:08:14;;;;;;;;;18.33;16.67;;;;;21.13;79.95;-19771.19;5011509;28;45848;-89
2023/06/13 05:10:41;;;;;;;;;20.67;19.00;;;;;21.62;80.26;-19783.84;5010393;28;45589;-85
2023/06/13 05:13:07;;;;;;;;;20.00;20.00;;;;;21.38;79.82;-19777.59;5025207;28;45550;-92
2023/06/13 05:15:32;;;;;;;;;18.67;18.67;;;;;21.31;80.08;-19775.72;5031428;28;47350;-88
2023/06/13 05:17:58;;;;;;;;;21.00;19.67;;;;;21.83;79.70;-19789.44;5029731;28;45406;-87
2023/06/13 05:20:26;;;;;;;;;23.67;18.33;;;;;21.87;79.91;-19790.38;5022926;28;45419;-87
2023/06/13 05:22:53;;;;;;;;;11.00;11.00;;;;;21.75;79.69;-19787.19;5033566;28;45456;-86
2023/06/13 05:25:20;;;;;;;;;24.33;18.67;;;;;21.84;79.72;-19789.72;5013307;28;47397;-86
2023/06/13 05:27:45;;;;;;;;;20.33;18.33;;;;;21.77;79.74;-19787.84;5036148;28;45446;-84
2023/06/13 05:30:11;;;;;;;;;22.00;18.00;;;;;21.82;79.22;-19789.03;5022676;28;45476;-85
2023/06/13 05:32:37;;;;;;;;;19.33;15.67;;;;;21.96;79.65;-19792.63;5028424;28;45573;-84
2023/06/13 05:35:03;;;;;;;;;18.33;18.33;;;;;21.81;79.34;-19788.78;5029187;28;46293;-84
2023/06/13 05:37:29;;;;;;;;;24.00;21.33;;;;;21.98;79.32;-19793.28;5023176;28;45384;-82
2023/06/13 05:39:55;;;;;;;;;19.67;18.00;;;;;21.85;79.25;-19789.84;5028738;28;45366;-84
2023/06/13 05:42:23;;;;;;;;;23.00;18.33;;;;;21.95;79.44;-19792.38;5021592;28;45534;-87
2023/06/13 05:44:48;;;;;;;;;19.00;16.67;;;;;22.13;79.63;-19797.28;5019418;28;46690;-81
2023/06/13 05:47:14;;;;;;;;;22.67;19.67;;;;;21.88;79.33;-19790.78;5029784;28;45384;-87
2023/06/13 05:49:39;;;;;;;;;20.67;16.00;;;;;22.21;79.30;-19799.16;5004621;28;46343;-84
2023/06/13 05:52:05;;;;;;;;;24.33;19.33;;;;;21.98;79.25;-19793.16;5032691;28;45556;-87
2023/06/13 05:54:31;;;;;;;;;20.00;20.00;;;;;22.23;79.09;-19799.69;5023412;28;47500;-89
2023/06/13 05:56:56;;;;;;;;;21.67;19.33;;;;;22.29;79.01;-19801.41;5020325;28;45399;-84
2023/06/13 05:59:22;;;;;;;;;23.67;22.00;;;;;22.33;79.33;-19802.34;5030572;28;45410;-84
2023/06/13 06:01:47;;;;;;;;;20.50;18.50;;;;;22.36;78.53;-19803.00;5028633;28;46353;-85
2023/06/13 06:04:12;;;;;;;;;21.00;17.33;;;;;22.38;78.37;-19803.69;5020914;28;45502;-87
2023/06/13 06:06:38;;;;;;;;;16.67;16.00;;;;;22.43;77.98;-19805.00;5021002;28;45656;-88
2023/06/13 06:09:04;;;;;;;;;20.00;19.00;;;;;22.47;78.60;-19805.94;5023029;28;45677;-89
2023/06/13 06:11:31;;;;;;;;;28.00;24.33;;;;;22.51;77.91;-19807.13;5031760;28;45635;-85
2023/06/13 06:13:56;;;;;;;;;25.33;20.33;;;;;22.38;77.78;-19803.53;5024062;28;46952;-88
2023/06/13 06:16:22;;;;;;;;;25.00;18.67;;;;;22.46;77.79;-19805.66;5025042;28;45466;-89
2023/06/13 06:18:48;;;;;;;;;17.33;15.67;;;;;22.54;77.02;-19807.94;5028909;28;45476;-85
2023/06/13 06:21:14;;;;;;;;;20.00;18.67;;;;;22.70;77.28;-19812.06;5027002;28;45854;-87
2023/06/13 06:23:42;;;;;;;;;20.67;20.00;;;;;22.76;77.26;-19813.50;5023297;28;46382;-86
2023/06/13 06:26:08;;;;;;;;;28.00;23.00;;;;;22.61;77.53;-19809.53;5033750;28;45558;-85
2023/06/13 06:28:33;;;;;;;;;20.33;19.00;;;;;22.71;77.24;-19812.19;5026831;28;46086;-87
2023/06/13 06:31:00;;;;;;;;;24.67;22.33;;;;;22.77;76.71;-19813.91;5031297;28;45674;-87
2023/06/13 06:33:25;;;;;;;;;20.00;18.67;;;;;22.72;76.21;-19812.59;5027406;28;47394;-87
2023/06/13 06:35:52;;;;;;;;;19.00;17.67;;;;;23.12;76.33;-19822.94;5030003;28;45474;-87
2023/06/13 06:38:18;;;;;;;;;23.00;22.33;;;;;23.10;76.77;-19822.41;5032476;28;45369;-88
2023/06/13 06:40:43;;;;;;;;;25.33;21.00;;;;;23.08;75.99;-19821.88;5006135;28;45872;-86
2023/06/13 06:43:08;;;;;;;;;26.00;23.67;;;;;22.91;75.09;-19817.50;5012558;28;47170;-88
2023/06/13 06:45:33;;;;;;;;;30.67;28.00;;;;;23.44;75.04;-19831.19;5033274;28;55085;-94
2023/06/13 06:47:59;;;;;;;;;65.75;50.50;;;;;23.14;74.43;-19823.34;5007155;28;47225;-90
2023/06/13 06:50:24;;;;;;;;;32.00;29.00;;;;;23.11;74.57;-19822.69;5026348;28;45526;-90
2023/06/13 06:52:50;;;;;;;;;27.33;24.33;;;;;23.54;73.97;-19833.84;5030379;28;46079;-93
2023/06/13 06:55:15;;;;;;;;;29.67;22.67;;;;;23.49;73.88;-19832.50;5013795;28;45574;-88
2023/06/13 06:57:40;;;;;;;;;28.00;21.50;;;;;23.56;73.32;-19834.22;5030471;28;46071;-88
2023/06/13 07:00:08;;;;;;;;;23.67;19.33;;;;;23.61;73.43;-19835.56;5005497;28;45570;-89
2023/06/13 07:02:34;;;;;;;;;22.00;20.00;;;;;23.51;73.38;-19832.91;5028716;28;46344;-89
2023/06/13 07:05:00;;;;;;;;;25.67;21.67;;;;;23.56;72.09;-19834.38;5012866;28;45730;-88
2023/06/13 07:07:25;;;;;;;;;21.67;17.33;;;;;24.01;71.58;-19845.91;5030069;28;45530;-89
2023/06/13 07:09:51;;;;;;;;;25.67;23.33;;;;;23.76;71.01;-19839.56;5029086;28;46049;-88
2023/06/13 07:12:16;;;;;;;;;20.00;18.33;;;;;24.14;70.61;-19849.22;5030790;28;45534;-89
2023/06/13 07:14:41;;;;;;;;;21.33;19.33;;;;;24.25;72.13;-19852.00;5008841;28;53617;-88
2023/06/13 07:17:08;;;;;;;;;15.67;12.33;;;;;24.34;70.25;-19854.53;5030069;28;45506;-88
2023/06/13 07:19:33;;;;;;;;;19.00;15.33;;;;;24.45;69.16;-19857.31;5029114;28;45609;-89
2023/06/13 07:21:59;;;;;;;;;16.33;14.00;;;;;24.48;69.07;-19858.13;5028043;28;46689;-89
2023/06/13 07:24:25;;;;;;;;;15.67;14.67;;;;;24.53;67.97;-19859.44;5031639;28;45434;-89
2023/06/13 07:26:50;;;;;;;;;12.67;11.33;;;;;24.13;66.91;-19849.09;5013162;28;45922;-90
2023/06/13 07:29:15;;;;;;;;;12.67;12.67;;;;;24.25;65.81;-19852.00;5031567;28;45560;-90
2023/06/13 07:31:41;;;;;;;;;12.33;12.33;;;;;24.44;65.71;-19857.19;5033146;28;45971;-90
2023/06/13 07:34:06;;;;;;;;;13.00;13.00;;;;;24.66;64.83;-19862.63;5028631;28;45751;-89
2023/06/13 07:36:32;;;;;;;;;14.00;10.33;;;;;24.72;64.35;-19864.22;5031569;28;46605;-91
2023/06/13 07:38:57;;;;;;;;;14.33;14.33;;;;;24.73;64.72;-19864.63;5033754;28;45518;-90
2023/06/13 07:41:23;;;;;;;;;11.33;11.33;;;;;24.60;64.76;-19861.31;5031166;28;45533;-89
2023/06/13 07:43:49;;;;;;;;;15.67;12.00;;;;;25.04;64.51;-19872.56;5034288;28;45348;-89
2023/06/13 07:46:15;;;;;;;;;14.00;12.67;;;;;25.19;63.78;-19876.41;5035319;28;45371;-90
2023/06/13 07:48:40;;;;;;;;;24.33;20.33;;;;;25.11;65.06;-19874.41;5014942;28;45514;-90
2023/06/13 07:51:06;;;;;;;;;12.67;11.33;;;;;25.10;62.68;-19874.03;5014921;28;53055;-89
2023/06/13 07:53:31;;;;;;;;;16.33;14.00;;;;;25.24;62.66;-19877.88;5013226;28;45731;-90
2023/06/13 07:55:56;;;;;;;;;18.67;14.67;;;;;25.54;63.91;-19885.41;5030584;28;45461;-90
2023/06/13 07:58:22;;;;;;;;;15.33;13.33;;;;;25.33;63.70;-19879.97;5019767;28;45583;-90
2023/06/13 08:00:47;;;;;;;;;11.00;10.00;;;;;25.69;61.61;-19889.38;5032928;28;48518;-90
2023/06/13 08:03:12;;;;;;;;;10.33;10.00;;;;;25.47;60.50;-19883.69;5023273;28;45423;-91
2023/06/13 08:05:38;;;;;;;;;14.67;13.67;;;;;25.81;61.80;-19892.56;5033260;28;45548;-89
2023/06/13 08:08:03;;;;;;;;;12.33;12.33;;;;;25.84;60.33;-19893.22;5035444;28;45480;-89
2023/06/13 08:10:29;;;;;;;;;11.33;10.33;;;;;25.93;59.39;-19895.47;5027750;28;45926;-89
2023/06/13 08:12:54;;;;;;;;;13.33;11.67;;;;;25.80;59.52;-19892.28;5034650;28;45444;-90
2023/06/13 08:15:20;;;;;;;;;19.33;18.00;;;;;25.52;59.36;-19885.03;5020283;28;45503;-90
2023/06/13 08:17:46;;;;;;;;;13.67;11.33;;;;;26.00;58.40;-19897.47;5033288;28;45596;-90
2023/06/13 08:20:11;;;;;;;;;12.00;11.00;;;;;26.22;59.27;-19903.16;5036016;28;45334;-90
2023/06/13 08:22:40;;;;;;;;;14.33;12.67;;;;;26.08;58.21;-19899.56;5014852;28;45496;-90
2023/06/13 08:25:10;;;;;;;;;14.00;12.33;;;;;26.52;58.53;-19910.81;5018016;28;45411;-89
2023/06/13 08:27:36;;;;;;;;;12.00;11.00;;;;;26.62;57.48;-19913.47;5032760;28;45406;-89
2023/06/13 08:30:03;;;;;;;;;12.00;11.00;;;;;26.70;56.47;-19915.56;5014937;28;47872;-91
2023/06/13 08:32:29;;;;;;;;;11.00;10.33;;;;;26.76;57.73;-19917.03;5017971;28;45587;-89
2023/06/13 08:34:55;;;;;;;;;17.00;12.00;;;;;26.65;57.45;-19914.25;5030715;28;45652;-91
2023/06/13 08:37:20;;;;;;;;;10.33;10.33;;;;;26.89;57.50;-19920.34;5035832;28;45425;-90
2023/06/13 08:39:45;;;;;;;;;9.67;9.33;;;;;27.26;56.79;-19929.84;5021871;28;45436;-91
2023/06/13 08:42:11;;;;;;;;;14.67;14.00;;;;;27.20;54.90;-19928.38;4999892;28;45425;-91
2023/06/13 08:44:38;;;;;;;;;16.00;13.33;;;;;27.78;55.01;-19943.44;5012272;28;45487;-91
2023/06/13 08:47:03;;;;;;;;;11.67;11.00;;;;;28.17;54.21;-19953.47;5018057;28;45408;-92
2023/06/13 08:49:30;;;;;;;;;16.67;12.67;;;;;28.86;52.13;-19971.00;5026466;28;45474;-91
2023/06/13 08:51:58;;;;;;;;;11.67;11.33;;;;;29.94;51.24;-19998.78;5023631;28;45572;-92
2023/06/13 08:54:25;;;;;;;;;12.67;11.67;;;;;30.18;49.13;-20004.97;5015837;28;45439;-91
2023/06/13 08:56:53;;;;;;;;;10.67;10.67;;;;;30.13;48.02;-20003.78;5030608;28;45420;-92
2023/06/13 08:59:25;;;;;;;;;11.33;11.33;;;;;29.62;47.57;-19988.63;5036377;28;46016;-91
2023/06/13 09:01:52;;;;;;;;;9.67;9.00;;;;;29.39;48.27;-19641.94;5024115;28;45374;-91
2023/06/13 09:04:18;;;;;;;;;10.67;10.00;;;;;29.47;49.59;-19984.81;5014896;28;45423;-92
2023/06/13 09:06:45;;;;;;;;;16.67;13.67;;;;;29.52;49.17;-19986.13;5033272;28;45408;-94
2023/06/13 09:09:12;;;;;;;;;12.33;11.33;;;;;29.79;49.28;-19993.09;5023345;28;47216;-92
2023/06/13 09:11:37;;;;;;;;;12.00;10.33;;;;;29.55;48.22;-19645.94;5031895;28;45752;-92
2023/06/13 09:14:04;;;;;;;;;12.33;12.33;;;;;30.01;48.19;-19657.53;5009742;28;45540;-93
2023/06/13 09:16:31;;;;;;;;;14.00;13.00;;;;;30.11;46.90;-18977.22;5026410;28;45569;-92
2023/06/13 09:18:57;;;;;;;;;13.33;11.00;;;;;30.34;45.89;-17616.63;5017147;28;48750;-94
2023/06/13 09:21:23;;;;;;;;;14.00;13.00;;;;;30.57;46.54;-17621.69;5018426;28;45382;-91
2023/06/13 09:23:49;;;;;;;;;12.67;11.67;;;;;30.86;46.26;-17286.19;5017372;28;45467;-92
2023/06/13 09:26:16;;;;;;;;;11.33;11.00;;;;;30.73;46.01;-16941.50;5027058;28;45447;-91
2023/06/13 09:28:47;;;;;;;;;10.67;9.67;;;;;31.10;44.07;-15580.88;5012916;28;47278;-93
2023/06/13 09:31:13;;;;;;;;;9.67;9.67;;;;;31.51;44.31;-14218.66;5016850;28;45541;-91
2023/06/13 09:33:38;;;;;;;;;10.67;10.67;;;;;31.38;45.10;-14901.31;5017605;28;45391;-92
2023/06/13 09:36:05;;;;;;;;;12.67;10.00;;;;;31.99;45.03;-14569.31;5033322;28;45541;-91
2023/06/13 09:38:34;;;;;;;;;11.00;9.67;;;;;32.14;42.36;-11141.94;5032272;28;46272;-92
2023/06/13 09:41:02;;;;;;;;;12.67;11.33;;;;;32.65;41.61;-8055.88;5022971;28;45667;-91
2023/06/13 09:43:28;;;;;;;;;12.00;12.00;;;;;33.35;41.85;-7372.47;5030549;28;45497;-93
2023/06/13 09:45:54;;;;;;;;;12.00;12.00;;;;;34.60;38.58;-2549.25;5025184;28;45746;-91
2023/06/13 09:48:20;;;;;;;;;11.67;10.67;;;;;36.12;34.52;37472.94;5028719;28;47166;-92
2023/06/13 09:50:55;;;;;;;;;12.67;12.67;;;;;36.86;31.82;56358.41;5033019;22;45459;-89
2023/06/13 09:53:21;;;;;;;;;11.67;10.33;;;;;37.69;31.26;62646.75;5017514;28;46415;-88
2023/06/13 09:55:48;;;;;;;;;13.00;11.67;;;;;38.46;30.04;65619.59;5026712;28;45601;-90
2023/06/13 09:58:14;;;;;;;;;11.33;11.33;;;;;38.85;27.76;67586.00;5031693;28;45494;-90
2023/06/13 10:00:39;;;;;;;;;11.33;11.33;;;;;38.91;27.23;67685.72;5027835;28;45498;-89
2023/06/13 10:03:05;;;;;;;;;9.67;9.67;;;;;39.06;26.82;67769.38;5026305;28;46159;-89
2023/06/13 10:05:30;;;;;;;;;9.00;9.00;;;;;39.02;26.98;67977.69;5037775;28;46001;-91
2023/06/13 10:07:56;;;;;;;;;13.00;11.00;;;;;39.03;26.90;68020.31;5036414;28;46333;-93
2023/06/13 10:10:24;;;;;;;;;10.33;10.33;;;;;38.91;27.07;67918.53;5029166;28;45645;-96
2023/06/13 10:13:00;;;;;;;;;11.67;10.00;;;;;39.45;27.46;68023.41;5019840;28;45475;-94
2023/06/13 10:15:33;;;;;;;;;9.00;8.00;;;;;39.70;26.42;67719.56;5023587;28;45738;-94
2023/06/13 10:18:07;;;;;;;;;9.00;8.00;;;;;39.17;26.29;67635.47;5024789;28;45769;-96
2023/06/13 10:20:34;;;;;;;;;10.67;9.33;;;;;39.62;25.69;67696.53;5003833;28;45880;-92
2023/06/13 10:23:02;;;;;;;;;9.00;9.00;;;;;39.84;25.27;67726.81;5016969;28;45622;-91
2023/06/13 10:29:22;;;;;;;;;10.67;10.33;;;;;40.40;26.15;67812.22;5025294;28;45754;-89
2023/06/13 10:32:20;;;;;;;;;8.33;8.33;;;;;40.30;25.53;67485.47;5035712;28;45444;-88
2023/06/13 10:35:09;;;;;;;;;12.00;10.67;;;;;40.57;25.61;67478.66;5036493;28;45476;-89
2023/06/13 10:38:15;;;;;;;;;11.00;9.33;;;;;40.63;25.24;67491.06;5032375;28;45605;-89
2023/06/13 10:41:08;;;;;;;;;11.00;10.00;;;;;39.78;24.96;67304.66;5030872;28;47802;-89
2023/06/13 10:44:07;;;;;;;;;12.00;10.33;;;;;39.93;24.41;67252.63;5000359;28;45497;-88
2023/06/13 10:46:34;;;;;;;;;10.00;10.00;;;;;40.03;25.47;67563.09;5024914;28;45599;-87
2023/06/13 10:49:02;;;;;;;;;9.67;9.33;;;;;39.59;24.80;67317.28;5021308;28;45506;-88
2023/06/13 10:52:00;;;;;;;;;8.67;8.67;;;;;40.41;24.52;67311.84;5016728;28;46693;-89
2023/06/13 10:54:26;;;;;;;;;12.00;9.33;;;;;39.72;23.66;67198.19;5036595;28;45515;-87
2023/06/13 10:57:08;;;;;;;;;6.67;6.67;;;;;39.98;24.14;67205.72;5035218;28;45519;-88
2023/06/13 11:02:35;;;;;;;;;10.00;8.33;;;;;40.27;24.23;67378.97;5029506;22;74270;-90
2023/06/13 11:05:04;;;;;;;;;9.67;9.67;;;;;39.53;24.48;67188.72;4918771;28;45801;-89
2023/06/13 11:07:30;;;;;;;;;10.67;10.67;;;;;39.75;23.99;67265.25;4941044;28;45812;-86
2023/06/13 11:10:48;;;;;;;;;9.67;9.67;;;;;40.35;23.92;67307.78;4953262;28;45584;-89
2023/06/13 11:13:27;;;;;;;;;10.00;10.00;;;;;39.45;23.96;67196.16;4946712;28;46344;-90
2023/06/13 11:16:28;;;;;;;;;;;;;;;;;;;;;
2023/06/13 11:18:54;;;;;;;;;11.00;9.00;;;;;40.24;22.36;67198.81;4997726;22;67875;-84
2023/06/13 11:21:19;;;;;;;;;9.67;8.33;;;;;40.28;21.15;67136.34;4976315;28;45589;-84
2023/06/13 11:23:53;;;;;;;;;10.00;8.67;;;;;40.24;22.41;67261.94;4964672;28;45775;-85
2023/06/13 11:26:20;;;;;;;;;12.67;8.67;;;;;40.26;22.24;67153.47;4977289;28;45400;-85
2023/06/13 11:28:50;;;;;;;;;9.00;7.33;;;;;40.38;21.45;67122.81;4977734;28;45489;-85
2023/06/13 11:31:16;;;;;;;;;11.67;10.67;;;;;40.36;21.43;67192.56;4988376;28;45637;-84
2023/06/13 11:33:46;;;;;;;;;10.67;9.33;;;;;40.23;21.10;67177.72;4991468;28;45493;-85
2023/06/13 11:36:14;;;;;;;;;7.67;7.67;;;;;40.05;21.07;67249.72;4974972;28;45643;-85
2023/06/13 11:38:43;;;;;;;;;9.00;9.00;;;;;40.43;21.64;67108.53;4985985;28;45815;-85
2023/06/13 11:41:09;;;;;;;;;8.33;8.33;;;;;40.47;21.77;67158.00;4975114;28;45462;-85
2023/06/13 11:43:35;;;;;;;;;13.33;11.33;;;;;40.46;21.87;67184.00;4975719;28;46952;-84
2023/06/13 11:46:03;;;;;;;;;9.67;9.00;;;;;40.43;21.93;67277.56;4996376;28;45480;-85
2023/06/13 11:48:29;;;;;;;;;8.33;8.33;;;;;40.48;21.67;67189.63;4996156;28;45805;-84
2023/06/13 11:51:11;;;;;;;;;8.33;8.33;;;;;40.29;21.29;67223.94;4972950;28;45693;-84
2023/06/13 11:53:51;;;;;;;;;7.67;7.67;;;;;40.20;21.21;67324.41;4993482;28;45981;-84
2023/06/13 11:56:20;;;;;;;;;7.00;6.00;;;;;39.97;20.48;67287.66;4980769;28;45460;-84
2023/06/13 11:58:46;;;;;;;;;4.67;4.67;;;;;39.82;20.63;67409.47;4974929;28;45926;-84
2023/06/13 12:01:16;;;;;;;;;7.67;7.33;;;;;39.60;21.31;67542.03;4989257;28;45808;-85
2023/06/13 12:03:45;;;;;;;;;9.00;8.00;;;;;39.21;22.09;67592.47;4992946;28;46102;-84
2023/06/13 12:06:11;;;;;;;;;8.67;8.00;;;;;38.81;21.95;67680.34;4991161;28;45479;-84
2023/06/13 12:08:40;;;;;;;;;7.00;7.00;;;;;38.54;22.46;67841.09;4987573;28;45568;-84
2023/06/13 12:11:05;;;;;;;;;10.67;9.00;;;;;38.30;22.74;67957.03;4993001;28;45591;-84
2023/06/13 12:13:33;;;;;;;;;11.00;9.00;;;;;37.97;23.07;68094.53;4975652;28;45609;-84
2023/06/13 12:15:59;;;;;;;;;8.67;8.67;;;;;37.71;23.14;68150.00;4992815;28;45414;-84
2023/06/13 12:18:25;;;;;;;;;9.67;8.33;;;;;37.44;23.28;68224.09;4970860;28;45864;-84
2023/06/13 12:20:53;;;;;;;;;7.67;7.67;;;;;37.20;24.12;68249.81;4988980;28;45505;-85
2023/06/13 12:23:20;;;;;;;;;7.33;6.33;;;;;37.17;23.45;68326.28;4990923;28;46186;-83
2023/06/13 12:25:46;;;;;;;;;8.67;7.00;;;;;37.09;23.10;68392.03;4991916;28;45868;-83
2023/06/13 12:28:15;;;;;;;;;7.33;7.33;;;;;37.00;23.66;68370.50;4991286;28;45443;-84
2023/06/13 12:30:42;;;;;;;;;14.00;12.33;;;;;36.55;23.35;68430.09;4990045;28;45840;-84
2023/06/13 12:33:18;;;;;;;;;11.00;11.00;;;;;36.82;24.03;68460.38;4989273;28;46260;-85
2023/06/13 12:35:51;;;;;;;;;9.67;9.33;;;;;36.57;22.89;68464.88;4995523;28;45492;-85
2023/06/13 12:38:26;;;;;;;;;7.67;7.67;;;;;36.60;24.75;68578.63;4992720;28;45713;-86
2023/06/13 12:40:51;;;;;;;;;9.33;9.33;;;;;36.47;23.74;68539.22;4993010;28;45428;-84
2023/06/13 12:43:23;;;;;;;;;9.67;9.33;;;;;36.39;23.69;68601.50;4992632;28;45713;-85
2023/06/13 12:45:48;;;;;;;;;9.67;9.33;;;;;35.91;23.76;68510.84;4994978;28;45477;-85
2023/06/13 12:48:18;;;;;;;;;8.33;8.33;;;;;35.83;23.92;68603.34;4986491;28;45957;-86
2023/06/13 12:50:44;;;;;;;;;8.67;8.67;;;;;35.97;23.53;68677.50;4992194;28;45424;-84
2023/06/13 12:53:09;;;;;;;;;11.00;11.00;;;;;35.99;24.47;68726.63;4995371;28;45930;-84
2023/06/13 12:55:38;;;;;;;;;10.00;10.00;;;;;35.92;24.25;68735.53;4988570;28;45475;-84
2023/06/13 12:58:29;;;;;;;;;9.33;9.33;;;;;35.77;23.52;68745.50;4981710;28;45387;-84
2023/06/13 13:00:56;;;;;;;;;12.33;10.67;;;;;35.58;24.79;68786.50;4993909;28;45691;-84
2023/06/13 13:03:21;;;;;;;;;9.00;9.00;;;;;35.48;24.41;68773.22;4995594;28;46543;-84
2023/06/13 13:05:50;;;;;;;;;10.67;10.00;;;;;35.45;24.99;68755.97;4993010;28;45540;-86
2023/06/13 13:08:17;;;;;;;;;12.67;8.67;;;;;35.40;25.06;68903.50;4987120;28;45822;-85
2023/06/13 13:10:43;;;;;;;;;9.00;8.67;;;;;35.30;24.29;68887.44;4989186;28;45445;-84
2023/06/13 13:13:08;;;;;;;;;9.33;9.33;;;;;35.21;24.67;68835.66;4983568;28;45574;-84
2023/06/13 13:15:34;;;;;;;;;8.33;8.33;;;;;35.07;25.27;68924.28;4996579;28;45481;-83
2023/06/13 13:17:59;;;;;;;;;10.00;7.67;;;;;34.82;24.34;68909.25;4996740;28;45366;-83
2023/06/13 13:20:25;;;;;;;;;10.00;9.00;;;;;34.89;25.69;68922.38;4996585;28;45344;-84
2023/06/13 13:22:51;;;;;;;;;8.00;8.00;;;;;34.93;24.85;68990.28;4984390;28;45355;-84
2023/06/13 13:25:16;;;;;;;;;9.33;8.00;;;;;34.72;24.79;68998.56;4996340;28;45647;-84
2023/06/13 13:27:42;;;;;;;;;12.00;11.33;;;;;34.72;24.52;68974.44;4995564;28;45364;-84
2023/06/13 13:30:08;;;;;;;;;9.67;9.67;;;;;34.35;25.34;68965.06;4988504;28;45649;-84
2023/06/13 13:32:33;;;;;;;;;7.33;7.33;;;;;34.65;24.33;68960.72;4994533;28;45459;-84
2023/06/13 13:35:01;;;;;;;;;10.67;9.33;;;;;34.61;24.35;68992.31;4991235;28;45511;-84
2023/06/13 13:37:26;;;;;;;;;11.33;9.33;;;;;34.55;25.49;69026.44;4998076;28;45592;-84
2023/06/13 13:39:52;;;;;;;;;11.33;8.67;;;;;34.34;25.25;69051.75;4982183;28;45779;-85
2023/06/13 13:42:17;;;;;;;;;16.67;13.33;;;;;34.38;25.17;69001.53;4996675;28;55696;-85
2023/06/13 13:44:43;;;;;;;;;13.67;10.67;;;;;34.24;25.57;68996.06;4982972;28;45466;-85
2023/06/13 13:47:08;;;;;;;;;9.00;9.00;;;;;34.06;25.15;69080.31;4997981;28;45567;-83
2023/06/13 13:49:36;;;;;;;;;8.67;8.67;;;;;34.25;26.03;69135.09;4998555;28;45380;-84
2023/06/13 13:52:01;;;;;;;;;13.33;12.33;;;;;34.12;25.28;69127.44;4979002;28;46300;-84
2023/06/13 13:54:26;;;;;;;;;12.33;9.33;;;;;33.94;25.02;69123.84;4998321;28;45402;-83
2023/06/13 13:56:52;;;;;;;;;10.67;10.67;;;;;34.01;25.65;69117.78;4998332;28;45307;-83
2023/06/13 13:59:17;;;;;;;;;10.00;10.00;;;;;33.84;25.67;69112.06;4998180;28;45359;-83
2023/06/13 14:01:43;;;;;;;;;11.67;11.33;;;;;33.74;25.79;69155.13;4992709;28;45701;-84
2023/06/13 14:04:08;;;;;;;;;11.00;11.00;;;;;33.63;25.05;69157.06;4979643;28;45392;-83
2023/06/13 14:06:33;;;;;;;;;11.00;10.00;;;;;33.81;24.90;69168.88;4998488;28;45347;-84
2023/06/13 14:08:59;;;;;;;;;10.00;9.00;;;;;33.71;24.43;69110.44;4988909;28;45738;-84
2023/06/13 14:11:25;;;;;;;;;13.00;11.33;;;;;33.74;24.98;69171.59;4982970;28;45471;-84
2023/06/13 14:13:51;;;;;;;;;10.67;9.67;;;;;33.71;25.09;69171.38;4996873;28;45798;-84
2023/06/13 14:16:16;;;;;;;;;8.33;8.33;;;;;33.66;25.24;69223.09;4996262;28;45507;-84
2023/06/13 14:18:42;;;;;;;;;11.33;9.67;;;;;33.50;24.87;69234.34;4992511;28;45400;-84
2023/06/13 14:21:07;;;;;;;;;11.33;10.00;;;;;33.60;24.50;69180.94;4997119;28;49907;-84
2023/06/13 14:23:33;;;;;;;;;10.00;10.00;;;;;33.52;24.23;69237.28;4997104;28;45445;-84
2023/06/13 14:25:59;;;;;;;;;11.67;10.33;;;;;33.47;24.85;69211.63;4997484;28;45942;-84
2023/06/13 14:28:24;;;;;;;;;10.00;10.00;;;;;33.11;24.84;69219.66;4978426;28;45730;-84
2023/06/13 14:30:50;;;;;;;;;10.67;10.33;;;;;33.17;25.34;69251.97;4996841;28;46593;-84
2023/06/13 14:33:16;;;;;;;;;12.00;10.33;;;;;33.19;24.88;69207.75;4952933;28;46270;-84
2023/06/13 14:35:42;;;;;;;;;9.67;9.67;;;;;33.14;25.93;69253.34;4994381;28;45536;-84
2023/06/13 14:38:07;;;;;;;;;8.67;8.00;;;;;33.04;25.18;69227.78;4969782;28;45380;-82
2023/06/13 14:40:33;;;;;;;;;8.67;8.67;;;;;33.10;24.60;69295.19;4989484;28;46739;-82
2023/06/13 14:42:58;;;;;;;;;8.00;8.00;;;;;32.95;24.98;69292.31;4973760;28;45513;-84
2023/06/13 14:45:24;;;;;;;;;10.67;9.33;;;;;32.83;24.43;69299.47;4992417;28;45447;-83
2023/06/13 14:47:51;;;;;;;;;10.33;10.33;;;;;32.93;25.14;69273.53;4975083;28;45847;-82
2023/06/13 14:50:16;;;;;;;;;13.00;9.67;;;;;32.96;25.61;69262.78;4994865;28;46110;-83
2023/06/13 14:52:41;;;;;;;;;11.33;11.33;;;;;32.93;25.00;69298.19;4990814;28;45450;-82
2023/06/13 14:55:07;;;;;;;;;6.67;5.67;;;;;32.93;26.74;69300.34;4993854;28;45773;-88
2023/06/13 14:57:32;;;;;;;;;12.33;9.67;;;;;32.61;31.55;69375.38;4990670;28;45659;-85
2023/06/13 14:59:57;;;;;;;;;8.33;8.33;;;;;32.44;35.81;69345.47;4994047;28;46095;-86
2023/06/13 15:02:23;;;;;;;;;12.67;9.33;;;;;32.10;34.62;69396.72;4994525;28;45451;-87
2023/06/13 15:04:48;;;;;;;;;11.33;10.00;;;;;32.00;33.19;69409.47;4972983;28;45542;-87
2023/06/13 15:07:14;;;;;;;;;9.33;9.33;;;;;31.58;30.94;69461.47;4988627;28;45569;-86
2023/06/13 15:09:42;;;;;;;;;15.67;12.33;;;;;31.54;32.76;69466.09;4995709;28;46152;-89
2023/06/13 15:12:09;;;;;;;;;9.67;8.67;;;;;30.88;33.62;69440.88;4985047;28;45447;-88
2023/06/13 15:14:34;;;;;;;;;11.33;11.00;;;;;31.22;35.32;69395.34;4976348;28;45432;-89
2023/06/13 15:17:00;;;;;;;;;11.67;11.67;;;;;30.86;36.13;69324.41;4990994;28;45804;-87
2023/06/13 15:19:25;;;;;;;;;8.33;7.33;;;;;30.82;34.69;69346.34;4982678;28;47058;-85
2023/06/13 15:21:51;;;;;;;;;14.00;14.00;;;;;30.87;36.67;69245.78;4991791;28;45441;-88
2023/06/13 15:24:16;;;;;;;;;10.67;9.33;;;;;30.80;34.61;69300.28;4985792;28;45797;-87
2023/06/13 15:26:41;;;;;;;;;12.00;9.33;;;;;30.74;36.96;69192.16;4996001;28;45502;-86
2023/06/13 15:29:07;;;;;;;;;11.67;11.00;;;;;30.65;38.53;68977.94;4993729;28;48233;-85
2023/06/13 15:31:32;;;;;;;;;11.00;11.00;;;;;30.34;38.62;68775.53;4986477;28;45918;-90
2023/06/13 15:33:58;;;;;;;;;11.67;10.33;;;;;30.12;38.51;68806.91;4990212;28;45456;-89
2023/06/13 15:36:23;;;;;;;;;11.00;10.00;;;;;30.08;38.22;68808.81;4994331;28;45421;-88
2023/06/13 15:38:48;;;;;;;;;12.67;11.67;;;;;30.33;38.63;68659.19;4991460;28;48445;-87
2023/06/13 15:41:15;;;;;;;;;13.00;11.33;;;;;30.26;39.16;68423.00;4989599;28;46324;-88
2023/06/13 15:43:40;;;;;;;;;12.00;8.00;;;;;29.78;38.01;68613.28;4991874;28;45619;-90
2023/06/13 15:46:06;;;;;;;;;11.00;11.00;;;;;30.09;39.21;68406.38;4995050;28;45708;-90
2023/06/13 15:48:31;;;;;;;;;9.33;8.67;;;;;29.95;39.30;68307.63;4991425;28;47638;-87
2023/06/13 15:50:57;;;;;;;;;9.67;8.33;;;;;29.90;38.77;68266.91;4992503;28;45483;-88
2023/06/13 15:53:22;;;;;;;;;10.00;10.00;;;;;29.98;38.29;68434.41;4989447;28;45527;-87
2023/06/13 15:55:48;;;;;;;;;15.67;11.67;;;;;30.06;38.10;68432.28;4987862;28;45624;-86
2023/06/13 15:58:13;;;;;;;;;10.67;10.33;;;;;29.78;39.03;68372.81;4989137;28;47241;-87
2023/06/13 16:00:40;;;;;;;;;11.67;10.67;;;;;29.98;39.11;68322.03;4996733;28;45864;-86
2023/06/13 16:03:06;;;;;;;;;13.33;10.33;;;;;29.85;36.72;68640.59;4994106;28;45590;-85
2023/06/13 16:05:32;;;;;;;;;13.00;10.33;;;;;29.88;38.19;68463.59;5005074;28;45657;-86
2023/06/13 16:07:58;;;;;;;;;10.00;10.00;;;;;29.45;37.87;68491.25;4994615;28;45999;-85
2023/06/13 16:10:23;;;;;;;;;11.67;10.00;;;;;29.69;39.29;68338.34;4983527;28;45563;-87
2023/06/13 16:12:49;;;;;;;;;9.33;9.33;;;;;29.72;38.59;68417.59;4992738;28;45646;-85
2023/06/13 16:15:14;;;;;;;;;11.00;10.33;;;;;29.44;39.68;68266.09;4991763;28;45526;-85
2023/06/13 16:17:39;;;;;;;;;10.33;9.00;;;;;29.22;39.35;68211.59;4993025;28;46800;-84
2023/06/13 16:20:06;;;;;;;;;12.00;12.00;;;;;29.44;38.93;68306.94;4992389;28;45434;-85
2023/06/13 16:22:31;;;;;;;;;14.67;11.67;;;;;29.67;39.21;68268.47;4981049;28;45802;-85
2023/06/13 16:24:56;;;;;;;;;11.00;10.00;;;;;29.48;39.62;68224.44;4986671;28;45757;-88
2023/06/13 16:27:22;;;;;;;;;9.67;9.33;;;;;29.48;38.87;68205.38;4969147;28;48329;-87